Have a Safe July 4th! 

Flight Track Log - Related Links

Times and Time Zones

All times are in EDT time to prevent confusion due to time zone crossing. See the CHQ5017 flight status page for this flight to view local times or setup timezone preferences in your user account.

Time Position Orientation Groundspeed Altitude Reporting Facility
EDT Latitude Longitude Course Direction KTS MPH feet Rate Location/Type
Sat 03:36:53 PM 42.0000 -87.9500 84° East 152 175 2,000  Level Chicago TRACON
Sat 03:37:47 PM 42.0333 -87.9333 20° North 204 235 4,100 2,053 Climbing Chicago TRACON
Sat 03:38:47 PM 42.1000 -87.8667 37° Northeast 256 295 5,900 2,211 Climbing Chicago TRACON
Sat 03:39:00 PM 42.0167 -87.6582 90° East  Level FlightAware Approximate
Sat 03:39:41 PM 42.1333 -87.8000 56° Northeast 280 322 8,300  Level Chicago TRACON
Sat 03:40:00 PM 42.0234 -87.5766 37° Northeast  Level FlightAware Approximate
Sat 03:40:42 PM 42.1506 -87.7139 75° East 283 326 10,500  Level Chicago Center
Sat 03:41:00 PM 42.0391 -87.4976 84° East  Level FlightAware Approximate
Sat 03:41:43 PM 42.1472 -87.5939 92° East 327 376 11,000  Level Chicago Center
Sat 03:42:00 PM 42.0474 -87.3981 84° East  Level FlightAware Approximate
Sat 03:42:45 PM 42.1381 -87.4628 95° East 348 400 11,000  Level Chicago Center
Sat 03:43:47 PM 42.1269 -87.2925 95° East 376 433 11,000  Level Chicago Center
Sat 03:44:48 PM 42.1186 -87.1539 95° East 374 430 11,000 -49 Level Chicago Center
Sat 03:45:50 PM 42.1108 -87.0111 94° East 380 437 10,900  Descending Chicago Center
Sat 03:46:52 PM 42.1186 -86.8672 86° East 385 443 11,000 49 Climbing Chicago Center
Sat 03:47:53 PM 42.1242 -86.7222 87° East 389 448 11,000  Level Chicago Center
Sat 03:48:55 PM 42.1294 -86.5650 87° East 392 451 11,000  Level Chicago Center
Sat 03:49:56 PM 42.1347 -86.4181 87° East 394 453 11,000 -49 Level Chicago Center
Sat 03:50:58 PM 42.1397 -86.2781 87° East 380 437 10,900 -484 Descending Chicago Center
Sat 03:52:00 PM 42.1442 -86.1506 87° East 347 399 10,000 -1,171 Descending Chicago Center
Sat 03:53:01 PM 42.1575 -86.0369 81° East 316 364 8,500 -1,561 Descending Chicago Center
Sat 03:54:03 PM 42.1761 -85.9269 77° East 307 353 6,800 -1,854 Descending Chicago Center
Sat 03:55:04 PM 42.1931 -85.7972 80° East 296 341 4,700 -1,317 Descending Chicago Center
Sat 03:56:06 PM 42.1450 -85.7203 130° Southeast 271 312 4,100 -290 Descending Chicago Center
Sat 03:57:08 PM 42.0958 -85.6481 133° Southeast 262 302 4,100 -439 Level Chicago Center
Sat 03:58:09 PM 42.0322 -85.6175 160° South 246 283 3,200 -585 Descending Chicago Center
Sat 03:59:11 PM 42.0072 -85.5508 117° Southeast 234 269 2,900 -145 Descending Chicago Center
Sat 04:00:13 PM 42.0519 -85.5133 32° Northeast 219 252 2,900  Level Chicago Center
Sat 04:01:15 PM 42.1003 -85.5222 352° North 192 221 2,900 -146 Level Chicago Center
Sat 04:02:16 PM 42.1450 -85.5325 350° North 151 174 2,600 -295 Descending Chicago Center

Login

Don't have an account? Register now (free) for customized features, flight alerts, and more!